Time;durP1;ratioP1;P1;durP2;ratioP2;P2;SDS_P1;SDS_P2;PMS_P1;PMS_P2;Temp;Humidity;BMP_temperature;BMP_pressure;BME280_temperature;BME280_humidity;BME280_pressure;Samples;Min_cycle;Max_cycle;Signal;HPM_P1;HPM_P2
2023/04/14 00:00:40;;;;;;;14.88;2.10;;;5.00;99.90;;;;;;5075780;28;20044;-63
2023/04/14 00:03:06;;;;;;;5.67;1.40;;;5.00;99.90;;;;;;5076184;28;20363;-63
2023/04/14 00:05:33;;;;;;;11.67;2.10;;;5.00;99.90;;;;;;5075698;28;20469;-81
2023/04/14 00:07:59;;;;;;;9.80;1.83;;;4.90;99.90;;;;;;5075767;28;20021;-63
2023/04/14 00:10:25;;;;;;;12.98;1.65;;;4.90;99.90;;;;;;5075836;28;20028;-62
2023/04/14 00:12:51;;;;;;;12.48;1.90;;;4.80;99.90;;;;;;5075705;28;20016;-63
2023/04/14 00:15:17;;;;;;;6.43;1.50;;;4.80;99.90;;;;;;5076148;28;20036;-63
2023/04/14 00:17:43;;;;;;;6.75;1.77;;;4.90;99.90;;;;;;5075007;28;20032;-62
2023/04/14 00:20:09;;;;;;;6.63;1.87;;;4.90;99.90;;;;;;5075735;28;20027;-63
2023/04/14 00:22:35;;;;;;;13.77;1.53;;;4.90;99.90;;;;;;5075120;28;20024;-63
2023/04/14 00:25:00;;;;;;;13.17;1.80;;;4.80;99.90;;;;;;5075163;28;20027;-63
2023/04/14 00:27:27;;;;;;;12.13;2.03;;;4.80;99.90;;;;;;5075415;28;20032;-63
2023/04/14 00:29:53;;;;;;;6.97;2.10;;;4.70;99.90;;;;;;5074984;28;20044;-62
2023/04/14 00:32:19;;;;;;;7.20;1.97;;;4.70;99.90;;;;;;5075512;28;20039;-63
2023/04/14 00:34:45;;;;;;;11.80;1.17;;;4.60;99.90;;;;;;5074952;28;20028;-62
2023/04/14 00:37:10;;;;;;;6.70;1.27;;;4.60;99.90;;;;;;5075459;28;20035;-63
2023/04/14 00:39:36;;;;;;;11.07;1.70;;;4.60;99.90;;;;;;5074103;28;20396;-70
2023/04/14 00:42:03;;;;;;;8.07;1.50;;;4.60;99.90;;;;;;5075034;28;20028;-63
2023/04/14 00:44:29;;;;;;;8.98;1.77;;;4.60;99.90;;;;;;5075047;28;20086;-62
2023/04/14 00:46:55;;;;;;;8.37;1.77;;;4.60;99.90;;;;;;5074779;28;20028;-62
2023/04/14 00:49:22;;;;;;;5.25;1.40;;;4.60;99.90;;;;;;5075335;28;20319;-62
2023/04/14 00:51:48;;;;;;;7.68;1.85;;;4.60;99.90;;;;;;5060913;28;20060;-62
2023/04/14 00:54:16;;;;;;;5.93;1.75;;;4.60;99.90;;;;;;5075429;28;20024;-63
2023/04/14 00:56:42;;;;;;;10.13;1.92;;;4.60;99.90;;;;;;5074632;28;20083;-62
2023/04/14 00:59:08;;;;;;;9.80;1.80;;;4.70;99.90;;;;;;5075128;28;20419;-62
2023/04/14 01:01:36;;;;;;;7.22;1.92;;;4.60;99.90;;;;;;5074990;28;20293;-63
2023/04/14 01:04:02;;;;;;;4.72;1.65;;;4.70;99.90;;;;;;5074524;28;20412;-62
2023/04/14 01:06:28;;;;;;;10.38;1.75;;;4.60;99.90;;;;;;5075049;28;20028;-62
2023/04/14 01:08:55;;;;;;;9.43;1.67;;;4.60;99.90;;;;;;5074426;28;20082;-62
2023/04/14 01:11:45;;;;;;;5.82;1.70;;;4.50;99.90;;;;;;5074990;28;20108;-62
2023/04/14 01:14:21;;;;;;;9.52;1.70;;;4.50;99.90;;;;;;5074551;28;20024;-62
2023/04/14 01:16:52;;;;;;;9.68;2.40;;;4.50;99.90;;;;;;5074861;28;20013;-62
2023/04/14 01:19:56;;;;;;;11.73;1.98;;;4.50;99.90;;;;;;5074376;28;20024;-62
2023/04/14 01:22:25;;;;;;;7.07;1.92;;;4.40;99.90;;;;;;5074851;28;20036;-63
2023/04/14 01:25:05;;;;;;;11.65;1.67;;;4.40;99.90;;;;;;5074682;28;20412;-62
2023/04/14 01:27:53;;;;;;;7.88;2.22;;;4.40;99.90;;;;;;5074942;28;20054;-63
2023/04/14 01:30:33;;;;;;;6.28;1.70;;;4.30;99.90;;;;;;5062045;28;20032;-62
2023/04/14 01:33:04;;;;;;;10.40;2.08;;;4.30;99.90;;;;;;5074323;28;20047;-62
2023/04/14 01:35:41;;;;;;;6.10;2.22;;;4.30;99.90;;;;;;5074870;28;20029;-63
2023/04/14 01:38:13;;;;;;;7.68;1.90;;;4.20;99.90;;;;;;5074175;28;20024;-63
2023/04/14 01:40:48;;;;;;;10.10;2.63;;;4.10;99.90;;;;;;5074946;28;20021;-63
2023/04/14 01:43:16;;;;;;;8.88;1.90;;;4.00;99.90;;;;;;5074113;28;20490;-62
2023/04/14 01:45:51;;;;;;;7.72;2.47;;;4.00;99.90;;;;;;5074874;28;20082;-63
2023/04/14 01:48:17;;;;;;;7.57;2.25;;;4.00;99.90;;;;;;5074085;28;20052;-63
2023/04/14 01:50:44;;;;;;;10.77;2.20;;;4.00;99.90;;;;;;5074799;28;20108;-63
2023/04/14 01:53:13;;;;;;;11.98;2.45;;;3.90;99.90;;;;;;5074704;28;20544;-62
2023/04/14 01:55:42;;;;;;;9.18;2.10;;;3.80;99.90;;;;;;5060677;28;20024;-62
2023/04/14 01:58:09;;;;;;;12.27;1.98;;;3.80;99.90;;;;;;5074065;28;20116;-62
2023/04/14 02:00:36;;;;;;;;;;;3.80;99.90;;;;;;5076546;28;20044;-63
2023/04/14 02:03:05;;;;;;;6.88;2.28;;;3.70;99.90;;;;;;5078237;28;19909;-63
2023/04/14 02:05:34;;;;;;;8.02;1.85;;;3.60;99.90;;;;;;5077875;28;20024;-63
2023/04/14 02:08:02;;;;;;;10.70;1.63;;;3.60;99.90;;;;;;5078366;28;20032;-63
2023/04/14 02:10:28;;;;;;;5.78;1.80;;;3.50;99.90;;;;;;5077634;28;20036;-63
2023/04/14 02:12:57;;;;;;;11.73;2.50;;;3.50;99.90;;;;;;5078027;28;20031;-62
2023/04/14 02:15:24;;;;;;;13.45;2.88;;;3.60;99.90;;;;;;5077599;28;20037;-63
2023/04/14 02:17:51;;;;;;;13.88;2.70;;;3.60;99.90;;;;;;5077834;28;20044;-63
2023/04/14 02:20:20;;;;;;;6.10;2.70;;;3.50;99.90;;;;;;5077822;28;20491;-63
2023/04/14 02:22:46;;;;;;;9.43;2.83;;;3.60;99.90;;;;;;5076107;28;20074;-62
2023/04/14 02:25:12;;;;;;;10.35;2.92;;;3.60;99.90;;;;;;5077844;28;20033;-63
2023/04/14 02:27:40;;;;;;;11.27;3.28;;;3.60;99.90;;;;;;5077661;28;20040;-63
2023/04/14 02:30:50;;;;;;;6.55;2.58;;;3.60;99.90;;;;;;5077280;28;20331;-63
2023/04/14 02:33:21;;;;;;;7.72;2.50;;;3.60;99.90;;;;;;4995671;28;20693;-62
2023/04/14 02:36:05;;;;;;;10.35;3.50;;;3.70;99.90;;;;;;4980023;28;20046;-62
2023/04/14 02:38:44;;;;;;;10.73;2.60;;;3.70;99.90;;;;;;4995881;28;20202;-63
2023/04/14 02:41:16;;;;;;;7.00;2.85;;;3.70;99.90;;;;;;4979763;28;20025;-63
2023/04/14 02:43:50;;;;;;;6.38;2.53;;;3.70;99.90;;;;;;4994600;28;20601;-62
2023/04/14 02:46:18;;;;;;;10.95;2.97;;;3.80;99.90;;;;;;4996181;28;20053;-63
2023/04/14 02:48:45;;;;;;;15.43;3.38;;;3.80;99.90;;;;;;4995816;28;20042;-63
2023/04/14 02:51:13;;;;;;;6.25;2.80;;;3.70;99.90;;;;;;4995529;28;20107;-63
2023/04/14 02:53:39;;;;;;;10.85;3.53;;;3.70;99.90;;;;;;4995979;28;20317;-63
2023/04/14 02:56:06;;;;;;;7.90;3.17;;;3.70;99.90;;;;;;4995924;28;20081;-63
2023/04/14 02:58:32;;;;;;;9.55;2.60;;;3.60;99.90;;;;;;4995576;28;20489;-63
2023/04/14 03:00:59;;;;;;;8.32;3.33;;;3.60;99.90;;;;;;4995556;28;20361;-62
2023/04/14 03:03:27;;;;;;;12.00;3.47;;;3.50;99.90;;;;;;4995791;28;20062;-63
2023/04/14 03:05:53;;;;;;;12.18;3.38;;;3.60;99.90;;;;;;4995571;28;20157;-62
2023/04/14 03:08:19;;;;;;;8.60;3.53;;;3.60;99.90;;;;;;5004651;28;20111;-62
2023/04/14 03:10:47;;;;;;;9.25;3.10;;;3.60;99.90;;;;;;5076487;28;20029;-62
2023/04/14 03:13:15;;;;;;;7.13;3.25;;;3.60;99.90;;;;;;5075925;28;20040;-63
2023/04/14 03:15:41;;;;;;;11.88;3.53;;;3.60;99.90;;;;;;5076424;28;20043;-63
2023/04/14 03:18:07;;;;;;;9.85;3.40;;;3.50;99.90;;;;;;5076708;28;20028;-63
2023/04/14 03:20:34;;;;;;;12.95;3.63;;;3.40;99.90;;;;;;5076510;28;20028;-63
2023/04/14 03:23:05;;;;;;;9.43;3.63;;;3.40;99.90;;;;;;5076957;28;20029;-62
2023/04/14 03:25:38;;;;;;;13.70;3.60;;;3.40;99.90;;;;;;5076776;28;20021;-62
2023/04/14 03:28:09;;;;;;;11.88;4.13;;;3.40;99.90;;;;;;5062580;28;20048;-63
2023/04/14 03:30:38;;;;;;;9.60;3.95;;;3.40;99.90;;;;;;5076914;28;20320;-62
2023/04/14 03:33:07;;;;;;;12.20;4.07;;;3.50;99.90;;;;;;5076140;28;20073;-62
2023/04/14 03:35:36;;;;;;;12.20;3.85;;;3.60;99.90;;;;;;5076824;28;20033;-63
2023/04/14 03:38:07;;;;;;;9.57;4.15;;;3.60;99.90;;;;;;5075958;28;20025;-63
2023/04/14 03:40:34;;;;;;;13.77;3.33;;;3.60;99.90;;;;;;5076627;28;20031;-62
2023/04/14 03:43:02;;;;;;;15.63;4.00;;;3.60;99.90;;;;;;5076193;28;20024;-62
2023/04/14 03:45:28;;;;;;;21.92;3.60;;;3.60;99.90;;;;;;5076243;28;20020;-62
2023/04/14 03:47:59;;;;;;;11.93;3.57;;;3.60;99.90;;;;;;5075851;28;20032;-62
2023/04/14 03:50:30;;;;;;;16.23;4.07;;;3.60;99.90;;;;;;5076036;28;20055;-62
2023/04/14 03:52:59;;;;;;;13.48;3.70;;;3.60;99.90;;;;;;5076199;28;20376;-62
2023/04/14 03:55:30;;;;;;;9.90;4.00;;;3.50;99.90;;;;;;5062367;28;20017;-62
2023/04/14 03:57:58;;;;;;;11.50;4.55;;;3.60;99.90;;;;;;5076220;28;20031;-63
2023/04/14 04:00:25;;;;;;;13.80;4.35;;;3.50;99.90;;;;;;5075710;28;20070;-62
2023/04/14 04:02:53;;;;;;;10.20;3.80;;;3.50;99.90;;;;;;5075921;28;20017;-62
2023/04/14 04:05:20;;;;;;;10.35;4.25;;;3.50;99.90;;;;;;5075757;28;20026;-63
2023/04/14 04:07:49;;;;;;;14.63;4.80;;;3.40;99.90;;;;;;5075874;28;20335;-62
2023/04/14 04:10:16;;;;;;;13.65;4.32;;;3.40;99.90;;;;;;5074180;28;20036;-62
2023/04/14 04:12:43;;;;;;;9.05;4.22;;;3.40;99.90;;;;;;5076101;28;20028;-62
2023/04/14 04:15:09;;;;;;;11.60;4.35;;;3.40;99.90;;;;;;5075404;28;20036;-62
2023/04/14 04:17:37;;;;;;;14.57;5.40;;;3.40;99.90;;;;;;5075582;28;20446;-62
2023/04/14 04:20:13;;;;;;;8.80;4.03;;;3.40;99.90;;;;;;5075863;28;20121;-62
2023/04/14 04:22:41;;;;;;;18.88;4.85;;;3.40;99.90;;;;;;5061525;28;20032;-62
2023/04/14 04:25:10;;;;;;;12.85;5.00;;;3.40;99.90;;;;;;5075540;28;20025;-62
2023/04/14 04:27:36;;;;;;;15.30;5.03;;;3.40;99.90;;;;;;5075123;28;20029;-62
2023/04/14 04:30:06;;;;;;;18.10;5.67;;;3.40;99.90;;;;;;5074406;28;20040;-62
2023/04/14 04:32:32;;;;;;;16.05;5.53;;;3.50;99.90;;;;;;5074815;28;20032;-62
2023/04/14 04:34:58;;;;;;;14.55;5.28;;;3.50;99.90;;;;;;5075424;28;20025;-62
2023/04/14 04:37:27;;;;;;;18.48;5.30;;;3.50;99.90;;;;;;5073162;28;20052;-62
2023/04/14 04:39:56;;;;;;;17.80;5.38;;;3.50;99.90;;;;;;5063537;28;20103;-62
2023/04/14 04:42:22;;;;;;;11.85;5.38;;;3.40;99.90;;;;;;5074536;28;20335;-63
2023/04/14 04:44:48;;;;;;;10.10;4.27;;;3.40;99.90;;;;;;5075345;28;20028;-63
2023/04/14 04:47:14;;;;;;;9.00;3.93;;;3.30;99.90;;;;;;5075160;28;20465;-63
2023/04/14 04:49:40;;;;;;;16.65;6.00;;;3.30;99.90;;;;;;5075395;28;20020;-62
2023/04/14 04:52:06;;;;;;;14.80;4.93;;;3.30;99.90;;;;;;5074835;28;20032;-63
2023/04/14 04:54:32;;;;;;;11.63;5.20;;;3.20;99.90;;;;;;5075212;28;20020;-63
2023/04/14 04:56:58;;;;;;;16.83;5.95;;;3.20;99.90;;;;;;5074611;28;20032;-63
2023/04/14 04:59:24;;;;;;;15.13;5.28;;;3.20;99.90;;;;;;5075067;28;20540;-63
2023/04/14 05:01:50;;;;;;;15.13;5.67;;;3.20;99.90;;;;;;5074822;28;20094;-62
2023/04/14 05:04:16;;;;;;;14.73;5.47;;;3.20;99.90;;;;;;5075051;28;20544;-62
2023/04/14 05:06:42;;;;;;;11.20;5.03;;;3.30;99.90;;;;;;5074925;28;20143;-62
2023/04/14 05:09:07;;;;;;;14.47;5.13;;;3.30;99.90;;;;;;5075400;28;20081;-62
2023/04/14 05:11:34;;;;;;;14.70;5.77;;;3.40;99.90;;;;;;5075064;28;20056;-62
2023/04/14 05:14:01;;;;;;;21.58;5.90;;;3.40;99.90;;;;;;5074839;28;20386;-62
2023/04/14 05:16:27;;;;;;;;;;;3.50;99.90;;;;;;5074077;28;20031;-62
2023/04/14 05:18:53;;;;;;;12.25;5.30;;;3.40;99.90;;;;;;5073231;28;20031;-62
2023/04/14 05:21:19;;;;;;;18.48;6.20;;;3.50;99.90;;;;;;5074718;28;20107;-62
2023/04/14 05:23:45;;;;;;;15.50;5.63;;;3.50;99.90;;;;;;5074386;28;20163;-62
2023/04/14 05:26:12;;;;;;;22.80;5.78;;;3.60;99.90;;;;;;5074723;28;20367;-62
2023/04/14 05:28:38;;;;;;;14.98;4.28;;;3.70;99.90;;;;;;5074797;28;20320;-62
2023/04/14 05:31:04;;;;;;;12.02;4.85;;;3.70;99.90;;;;;;5074154;28;20037;-62
2023/04/14 05:33:30;;;;;;;15.60;5.70;;;3.80;99.90;;;;;;5074885;28;20355;-62
2023/04/14 05:35:56;;;;;;;15.07;6.53;;;3.80;99.90;;;;;;5076513;28;20032;-62
2023/04/14 05:38:22;;;;;;;17.47;5.63;;;3.90;99.90;;;;;;5077592;28;20309;-63
2023/04/14 05:40:47;;;;;;;17.60;5.57;;;4.00;99.90;;;;;;5078558;28;20028;-61
2023/04/14 05:43:15;;;;;;;19.53;5.70;;;4.10;99.90;;;;;;5078695;28;20029;-62
2023/04/14 05:45:41;;;;;;;19.27;6.05;;;4.20;99.90;;;;;;5078631;28;20024;-62
2023/04/14 05:48:07;;;;;;;9.50;4.18;;;4.30;99.90;;;;;;5072194;28;20032;-62
2023/04/14 05:50:33;;;;;;;11.47;4.20;;;4.40;99.90;;;;;;5078575;28;20400;-62
2023/04/14 05:52:59;;;;;;;18.15;5.90;;;4.40;99.90;;;;;;5078266;28;20025;-62
2023/04/14 05:55:26;;;;;;;13.57;5.43;;;4.50;99.90;;;;;;5078573;28;20059;-62
2023/04/14 05:57:51;;;;;;;15.93;4.93;;;4.60;99.90;;;;;;5078284;28;20623;-62
2023/04/14 06:00:18;;;;;;;17.47;5.20;;;4.60;99.90;;;;;;5078077;28;20036;-63
2023/04/14 06:02:44;;;;;;;14.35;5.05;;;4.70;99.90;;;;;;5078091;28;20028;-62
2023/04/14 06:05:11;;;;;;;15.15;4.72;;;4.80;99.90;;;;;;5078229;28;20050;-62
2023/04/14 06:07:38;;;;;;;11.50;4.13;;;4.90;99.90;;;;;;5077962;28;20028;-63
2023/04/14 06:10:04;;;;;;;16.23;4.57;;;5.00;99.90;;;;;;5077759;28;20063;-63
2023/04/14 06:12:30;;;;;;;10.27;4.35;;;5.00;99.90;;;;;;5078305;28;20028;-63
2023/04/14 06:14:56;;;;;;;11.67;4.77;;;5.10;99.90;;;;;;5078033;28;20024;-62
2023/04/14 06:17:22;;;;;;;9.70;5.17;;;5.20;99.90;;;;;;5077621;28;20036;-63
2023/04/14 06:19:48;;;;;;;11.80;4.67;;;5.20;99.90;;;;;;5077910;28;20032;-62
2023/04/14 06:22:18;;;;;;;15.37;4.87;;;5.30;99.90;;;;;;5077685;28;20036;-63
2023/04/14 06:24:47;;;;;;;13.35;4.55;;;5.40;99.90;;;;;;5078122;28;20021;-63
2023/04/14 06:27:13;;;;;;;12.05;4.38;;;5.50;99.90;;;;;;5077359;28;20040;-65
2023/04/14 06:29:39;;;;;;;12.43;4.03;;;5.60;99.90;;;;;;5076600;28;20044;-63
2023/04/14 06:32:05;;;;;;;11.63;3.90;;;5.60;99.90;;;;;;5076227;28;20040;-62
2023/04/14 06:34:31;;;;;;;20.63;5.10;;;5.70;99.90;;;;;;5076581;28;20253;-63
2023/04/14 06:36:57;;;;;;;10.00;4.40;;;5.90;99.90;;;;;;5076567;28;20034;-63
2023/04/14 06:39:25;;;;;;;14.38;4.25;;;5.90;99.90;;;;;;5076448;28;20099;-63
2023/04/14 06:41:50;;;;;;;10.80;5.30;;;6.00;99.90;;;;;;5076348;28;20027;-62
2023/04/14 06:44:16;;;;;;;9.80;4.20;;;6.20;99.90;;;;;;5076412;28;20025;-63
2023/04/14 06:46:42;;;;;;;10.43;4.20;;;6.40;99.90;;;;;;5075786;28;20032;-63
2023/04/14 06:49:07;;;;;;;11.20;4.30;;;6.60;99.90;;;;;;5074884;28;20078;-62
2023/04/14 06:51:33;;;;;;;16.50;4.07;;;6.90;99.90;;;;;;5076307;28;20020;-61
2023/04/14 06:53:59;;;;;;;10.23;4.60;;;7.10;99.90;;;;;;5076539;28;20095;-62
2023/04/14 06:56:25;;;;;;;13.93;4.60;;;7.40;99.90;;;;;;5075815;28;20104;-62
2023/04/14 06:59:04;;;;;;;12.10;4.03;;;7.80;99.90;;;;;;5076201;28;20112;-62
2023/04/14 07:01:31;;;;;;;12.13;4.38;;;8.50;99.90;;;;;;5075593;28;20029;-62
2023/04/14 07:03:58;;;;;;;9.98;3.90;;;8.80;99.90;;;;;;5076531;28;20060;-62
2023/04/14 07:06:23;;;;;;;18.83;4.05;;;9.50;99.90;;;;;;5076319;28;20063;-63
2023/04/14 07:08:49;;;;;;;10.80;3.47;;;10.00;99.90;;;;;;5075702;28;20028;-64
2023/04/14 07:11:15;;;;;;;8.07;3.57;;;10.60;99.90;;;;;;5075848;28;20077;-63
2023/04/14 07:13:40;;;;;;;8.20;3.50;;;11.00;99.90;;;;;;5075616;28;20411;-65
2023/04/14 07:16:07;;;;;;;12.73;3.43;;;11.40;99.90;;;;;;5076094;28;20059;-64
2023/04/14 07:18:33;;;;;;;6.07;3.35;;;12.00;99.90;;;;;;5075386;28;20033;-64
2023/04/14 07:21:00;;;;;;;10.63;3.30;;;12.50;99.90;;;;;;5075800;28;20024;-65
2023/04/14 07:23:26;;;;;;;8.20;2.80;;;12.80;99.90;;;;;;5075878;28;20032;-67
2023/04/14 07:25:54;;;;;;;6.25;2.97;;;13.20;99.90;;;;;;5075517;28;20024;-64
2023/04/14 07:28:21;;;;;;;9.48;2.83;;;13.60;99.90;;;;;;5033134;28;1219653;-66
2023/04/14 07:30:48;;;;;;;12.68;3.08;;;14.00;99.90;;;;;;5076248;28;20032;-64
2023/04/14 07:33:17;;;;;;;22.83;3.80;;;14.30;99.90;;;;;;5076932;28;20064;-73
2023/04/14 07:35:44;;;;;;;24.67;4.47;;;14.80;99.90;;;;;;5076252;28;20090;-76
2023/04/14 07:38:09;;;;;;;30.90;3.55;;;15.20;99.90;;;;;;5075512;28;20024;-68
2023/04/14 07:40:35;;;;;;;16.63;2.43;;;15.60;99.90;;;;;;5076666;28;20433;-65
2023/04/14 07:43:01;;;;;;;6.70;3.07;;;16.10;99.90;;;;;;5060479;28;20032;-65
2023/04/14 07:45:26;;;;;;;10.37;3.07;;;16.40;99.90;;;;;;5076370;28;20044;-64
2023/04/14 07:47:52;;;;;;;11.67;3.17;;;16.60;99.90;;;;;;5075463;28;20036;-63
2023/04/14 07:50:18;;;;;;;7.00;2.13;;;16.50;99.90;;;;;;5076107;28;20082;-63
2023/04/14 07:52:43;;;;;;;9.00;1.97;;;15.80;99.90;;;;;;5075563;28;20063;-63
2023/04/14 07:55:09;;;;;;;12.47;2.83;;;15.50;99.90;;;;;;5075592;28;20020;-63
2023/04/14 07:57:35;;;;;;;6.30;2.20;;;15.50;99.90;;;;;;5074923;28;20378;-63
2023/04/14 08:00:02;;;;;;;6.00;2.10;;;15.60;99.90;;;;;;5075606;28;20108;-64
2023/04/14 08:02:29;;;;;;;7.53;2.13;;;15.60;99.90;;;;;;5075540;28;20374;-64
2023/04/14 08:04:55;;;;;;;7.75;1.85;;;15.80;99.90;;;;;;5075621;28;20104;-64
2023/04/14 08:07:20;;;;;;;9.77;1.77;;;15.90;99.90;;;;;;5075855;28;20056;-63
2023/04/14 08:09:48;;;;;;;6.40;1.60;;;16.20;99.90;;;;;;5075890;28;20024;-64
2023/04/14 08:12:14;;;;;;;4.82;2.13;;;16.30;99.90;;;;;;5074286;28;20025;-68
2023/04/14 08:14:40;;;;;;;8.20;2.33;;;16.30;99.90;;;;;;5076093;28;20021;-63
2023/04/14 08:17:06;;;;;;;7.15;2.40;;;16.10;99.90;;;;;;5075231;28;20064;-63
2023/04/14 08:19:32;;;;;;;5.57;1.90;;;16.10;99.90;;;;;;5075811;28;20028;-64
2023/04/14 08:21:58;;;;;;;13.65;2.03;;;16.10;99.90;;;;;;5074252;28;20379;-65
2023/04/14 08:24:24;;;;;;;7.00;1.60;;;16.40;99.90;;;;;;5075623;28;20029;-63
2023/04/14 08:26:49;;;;;;;3.40;1.57;;;16.50;99.90;;;;;;5075599;28;20139;-81
2023/04/14 08:29:15;;;;;;;5.13;1.50;;;16.50;99.90;;;;;;5074928;28;20335;-64
2023/04/14 08:31:41;;;;;;;6.07;1.77;;;16.70;99.90;;;;;;5075738;28;20066;-64
2023/04/14 08:34:06;;;;;;;6.07;1.30;;;16.60;99.90;;;;;;5075346;28;20099;-65
2023/04/14 08:36:32;;;;;;;13.27;1.37;;;16.60;99.90;;;;;;5075423;28;20435;-82
2023/04/14 08:38:59;;;;;;;4.00;1.07;;;17.00;99.90;;;;;;5074955;28;20028;-64
2023/04/14 08:41:27;;;;;;;3.28;1.02;;;17.20;99.90;;;;;;5075723;28;20335;-64
2023/04/14 08:43:53;;;;;;;4.22;1.25;;;17.40;99.90;;;;;;5074237;28;20035;-64
2023/04/14 08:46:20;;;;;;;3.17;1.03;;;17.40;99.90;;;;;;5075297;28;20017;-64
2023/04/14 08:48:47;;;;;;;4.05;1.10;;;17.50;99.90;;;;;;5075499;28;20024;-64
2023/04/14 08:51:17;;;;;;;;;;;17.80;99.90;;;;;;5075482;28;20037;-65
2023/04/14 08:53:45;;;;;;;2.42;0.85;;;17.90;99.90;;;;;;5061639;28;20015;-63
2023/04/14 08:56:17;;;;;;;4.95;0.98;;;17.80;99.50;;;;;;5075013;28;20025;-64
2023/04/14 08:58:43;;;;;;;6.18;1.00;;;17.50;99.70;;;;;;5075017;28;20365;-64
2023/04/14 09:01:10;;;;;;;3.20;0.93;;;17.40;99.90;;;;;;5075215;28;20032;-64
2023/04/14 09:03:36;;;;;;;4.30;0.80;;;17.50;99.90;;;;;;5074760;28;20096;-64
2023/04/14 09:06:04;;;;;;;5.47;0.85;;;17.50;99.80;;;;;;5074995;28;20061;-82
2023/04/14 09:08:32;;;;;;;7.00;1.20;;;17.20;99.30;;;;;;5074738;28;20040;-64
2023/04/14 09:11:02;;;;;;;2.60;1.15;;;17.10;99.90;;;;;;5075303;28;20052;-65
2023/04/14 09:13:29;;;;;;;5.25;1.10;;;17.20;99.90;;;;;;5073660;28;20041;-65
2023/04/14 09:15:56;;;;;;;6.57;1.20;;;17.40;99.90;;;;;;5075142;28;20029;-63
2023/04/14 09:18:23;;;;;;;7.55;0.98;;;17.70;99.90;;;;;;5075188;28;20032;-63
2023/04/14 09:20:49;;;;;;;5.38;0.88;;;18.00;98.90;;;;;;5074650;28;20350;-63
2023/04/14 09:23:15;;;;;;;7.20;1.30;;;17.70;99.10;;;;;;5075191;28;20024;-65
2023/04/14 09:25:42;;;;;;;2.85;0.90;;;17.60;98.70;;;;;;5074456;28;20028;-64
2023/04/14 09:28:07;;;;;;;3.30;0.93;;;17.80;99.50;;;;;;5073650;28;20386;-63
2023/04/14 09:30:33;;;;;;;6.47;0.87;;;17.80;97.30;;;;;;5074285;28;20032;-65
2023/04/14 09:33:06;;;;;;;1.50;1.03;;;17.40;98.80;;;;;;5073756;28;20032;-65
2023/04/14 09:35:50;;;;;;;4.55;0.93;;;17.40;99.00;;;;;;5074264;28;20030;-64
2023/04/14 09:38:32;;;;;;;2.08;0.70;;;17.20;98.90;;;;;;5074718;28;20028;-64
2023/04/14 09:40:58;;;;;;;3.97;0.80;;;17.20;99.30;;;;;;5074204;28;20338;-64
2023/04/14 09:43:26;;;;;;;2.57;0.70;;;17.30;99.60;;;;;;5075193;28;20104;-65
2023/04/14 09:45:52;;;;;;;6.97;1.10;;;17.50;98.40;;;;;;5074381;28;20104;-64
2023/04/14 09:48:19;;;;;;;3.92;0.77;;;17.40;98.70;;;;;;5075075;28;20382;-63
2023/04/14 09:51:09;;;;;;;4.22;0.80;;;17.10;97.60;;;;;;5074491;28;20020;-64
2023/04/14 09:53:38;;;;;;;3.70;0.80;;;16.60;99.40;;;;;;5073583;28;20021;-64
2023/04/14 09:56:08;;;;;;;3.90;1.00;;;16.70;99.90;;;;;;5074608;28;20024;-65
2023/04/14 09:58:39;;;;;;;3.60;0.90;;;16.80;99.90;;;;;;5074310;28;20017;-65
2023/04/14 10:01:16;;;;;;;4.82;0.90;;;17.10;99.90;;;;;;5074347;28;20044;-66
2023/04/14 10:03:47;;;;;;;3.80;1.05;;;17.20;99.30;;;;;;5074237;28;20300;-88
2023/04/14 10:06:16;;;;;;;3.95;0.95;;;17.00;99.80;;;;;;5074376;28;20507;-64
2023/04/14 10:08:50;;;;;;;5.95;1.15;;;16.90;99.40;;;;;;5074512;28;20029;-65
2023/04/14 10:11:26;;;;;;;3.75;0.70;;;16.80;99.90;;;;;;5074424;28;20438;-64
2023/04/14 10:13:57;;;;;;;6.53;1.00;;;16.90;99.40;;;;;;5074156;28;20029;-65
2023/04/14 10:16:23;;;;;;;2.22;1.20;;;17.00;99.50;;;;;;5072341;28;20041;-64
2023/04/14 10:18:50;;;;;;;5.20;1.20;;;16.90;99.10;;;;;;5073591;28;20099;-64
2023/04/14 10:21:16;;;;;;;5.60;1.15;;;16.60;99.90;;;;;;5075037;28;20035;-64
2023/04/14 10:23:43;;;;;;;5.77;1.33;;;16.50;99.90;;;;;;5077462;28;20028;-64
2023/04/14 10:26:11;;;;;;;3.30;1.00;;;16.40;99.70;;;;;;5077312;28;20417;-82
2023/04/14 10:28:42;;;;;;;6.97;1.05;;;16.30;99.30;;;;;;5077382;28;20068;-64
2023/04/14 10:31:29;;;;;;;5.00;1.05;;;16.20;99.50;;;;;;5063581;28;20059;-65
2023/04/14 10:33:56;;;;;;;6.60;1.60;;;16.60;99.40;;;;;;5076701;28;20074;-64
2023/04/14 10:36:24;;;;;;;3.67;1.30;;;17.00;98.90;;;;;;5076931;28;20431;-67
2023/04/14 10:38:58;;;;;;;4.97;0.90;;;17.10;99.00;;;;;;5077574;28;20044;-67
2023/04/14 10:41:23;;;;;;;5.55;1.55;;;17.50;99.60;;;;;;5061934;28;20128;-65
2023/04/14 10:43:49;;;;;;;4.93;1.07;;;17.80;97.80;;;;;;5077411;28;20451;-64
2023/04/14 10:46:15;;;;;;;4.07;0.93;;;17.90;96.60;;;;;;5076722;28;20304;-64
2023/04/14 10:48:45;;;;;;;10.38;1.20;;;17.50;96.90;;;;;;5077399;28;20043;-88
2023/04/14 10:51:11;;;;;;;6.32;1.30;;;17.30;98.10;;;;;;5076693;28;20020;-64
2023/04/14 10:53:46;;;;;;;4.40;1.10;;;17.40;98.70;;;;;;5076760;28;20070;-64
2023/04/14 10:56:12;;;;;;;2.83;1.15;;;17.60;97.00;;;;;;5077106;28;20055;-66
2023/04/14 10:58:38;;;;;;;6.57;1.40;;;17.70;98.70;;;;;;5076658;28;20032;-65
2023/04/14 11:01:23;;;;;;;3.63;1.10;;;17.60;98.30;;;;;;5076711;28;20481;-65
2023/04/14 11:03:49;;;;;;;5.60;1.25;;;17.80;97.40;;;;;;5075427;28;20020;-65
2023/04/14 11:06:46;;;;;;;7.32;1.40;;;18.10;97.60;;;;;;5076857;28;20096;-68
2023/04/14 11:09:30;;;;;;;5.95;1.13;;;18.00;97.40;;;;;;5064168;28;20099;-65
2023/04/14 11:12:05;;;;;;;2.47;0.80;;;18.10;97.70;;;;;;5076234;28;20023;-64
2023/04/14 11:14:32;;;;;;;2.53;0.70;;;18.40;95.90;;;;;;5076880;28;20142;-66
2023/04/14 11:17:02;;;;;;;4.53;1.45;;;18.60;96.50;;;;;;5076225;28;20455;-67
2023/04/14 11:19:28;;;;;;;3.42;0.88;;;18.90;96.80;;;;;;5076761;28;20116;-83
2023/04/14 11:21:54;;;;;;;2.20;1.08;;;19.30;96.10;;;;;;5076231;28;20029;-66
2023/04/14 11:24:24;;;;;;;2.80;1.08;;;19.40;95.80;;;;;;5076490;28;20068;-65
2023/04/14 11:26:54;;;;;;;2.58;0.75;;;19.60;96.10;;;;;;5076532;28;20029;-64
2023/04/14 11:29:20;;;;;;;105.32;5.72;;;19.60;94.30;;;;;;5075848;28;20098;-67
2023/04/14 11:31:57;;;;;;;3.95;1.20;;;19.30;96.80;;;;;;5074866;28;20552;-67
2023/04/14 11:34:27;;;;;;;;;;;19.40;96.70;;;;;;5075353;28;20047;-66
2023/04/14 11:36:53;;;;;;;2.75;1.20;;;19.40;96.10;;;;;;5075911;28;19912;-67
2023/04/14 11:39:19;;;;;;;5.15;1.10;;;19.60;95.50;;;;;;5076416;28;20017;-66
2023/04/14 11:41:50;;;;;;;3.65;1.30;;;19.70;94.00;;;;;;5076621;28;20063;-67
2023/04/14 11:44:19;;;;;;;4.80;1.40;;;19.70;96.50;;;;;;5076850;28;20077;-64
2023/04/14 11:46:46;;;;;;;4.00;1.10;;;19.60;95.00;;;;;;5076197;28;20016;-67
2023/04/14 11:49:12;;;;;;;6.22;1.10;;;19.50;95.50;;;;;;5060933;28;20478;-65
2023/04/14 11:51:37;;;;;;;3.80;0.70;;;19.50;94.90;;;;;;5076212;28;20036;-66
2023/04/14 11:54:04;;;;;;;4.10;1.33;;;19.50;96.00;;;;;;5076464;28;20047;-68
2023/04/14 11:56:30;;;;;;;4.35;1.27;;;19.50;95.70;;;;;;5076086;28;20311;-66
2023/04/14 11:59:05;;;;;;;;;;;19.40;94.10;;;;;;5077478;28;20161;-76
2023/04/14 12:01:31;;;;;;;2.17;1.02;;;19.10;93.80;;;;;;5076200;28;19905;-87
2023/04/14 12:03:57;;;;;;;4.70;0.90;;;19.10;95.60;;;;;;5076362;28;20016;-66
2023/04/14 12:06:26;;;;;;;4.85;1.20;;;19.40;96.50;;;;;;5076307;28;20060;-65
2023/04/14 12:09:02;;;;;;;2.78;0.93;;;19.30;93.50;;;;;;5075585;28;20032;-65
2023/04/14 12:11:28;;;;;;;3.33;1.02;;;19.30;95.40;;;;;;5068075;28;20044;-64
2023/04/14 12:13:53;;;;;;;4.33;0.70;;;19.70;93.40;;;;;;5075568;28;20078;-67
2023/04/14 12:16:19;;;;;;;1.77;0.90;;;19.90;94.20;;;;;;5075821;28;20028;-66
2023/04/14 12:18:45;;;;;;;4.10;1.13;;;20.00;94.00;;;;;;5075754;28;20029;-65
2023/04/14 12:21:17;;;;;;;8.60;1.25;;;20.00;93.80;;;;;;5075866;28;20027;-65
2023/04/14 12:23:47;;;;;;;4.68;0.82;;;20.10;94.80;;;;;;5075219;28;20323;-66
2023/04/14 12:26:13;;;;;;;5.38;1.00;;;20.30;94.60;;;;;;5075782;28;20077;-77
2023/04/14 12:28:40;;;;;;;1.98;0.82;;;20.40;92.40;;;;;;5075491;28;20049;-64
2023/04/14 12:31:07;;;;;;;3.90;1.23;;;19.90;92.30;;;;;;5075201;28;20033;-63
2023/04/14 12:33:33;;;;;;;1.35;0.95;;;18.90;92.20;;;;;;5075722;28;20043;-63
2023/04/14 12:36:11;;;;;;;5.35;0.90;;;18.00;93.90;;;;;;5075110;28;20040;-64
2023/04/14 12:38:38;;;;;;;5.57;1.08;;;17.60;94.20;;;;;;5075493;28;20123;-65
2023/04/14 12:41:04;;;;;;;3.33;0.80;;;18.00;96.10;;;;;;5074982;28;20016;-66
2023/04/14 12:43:34;;;;;;;3.70;1.10;;;18.50;96.70;;;;;;5074121;28;20021;-65
2023/04/14 12:46:02;;;;;;;1.00;0.80;;;19.00;94.40;;;;;;5075021;28;20438;-65
2023/04/14 12:48:43;;;;;;;5.30;0.80;;;19.50;94.90;;;;;;5075171;28;20056;-64
2023/04/14 12:51:14;;;;;;;1.98;0.82;;;19.20;92.70;;;;;;5075117;28;20068;-63
2023/04/14 12:53:41;;;;;;;2.40;0.70;;;18.60;93.00;;;;;;5075667;28;20051;-78
2023/04/14 12:56:12;;;;;;;5.22;0.88;;;18.20;92.40;;;;;;5075314;28;20357;-65